Time;durP1;ratioP1;P1;durP2;ratioP2;P2;SDS_P1;SDS_P2;PMS_P1;PMS_P2;Temp;Humidity;BMP_temperature;BMP_pressure;BME280_temperature;BME280_humidity;BME280_pressure;Samples;Min_cycle;Max_cycle;Signal;HPM_P1;HPM_P2
2022/05/19 00:02:01;;;;;;;4.70;3.03;;;;;;;7.28;76.58;100526.91;5018361;28;20092;-91
2022/05/19 00:04:27;;;;;;;13.82;2.40;;;;;;;7.13;76.06;100505.00;4985989;28;20116;-91
2022/05/19 00:06:52;;;;;;;5.88;2.92;;;;;;;7.32;76.15;100519.28;4985668;28;20128;-90
2022/05/19 00:09:18;;;;;;;9.52;3.25;;;;;;;7.31;76.07;100512.28;4985670;28;20030;-90
2022/05/19 00:11:43;;;;;;;6.18;3.80;;;;;;;7.21;75.83;100505.56;5002078;28;20029;-89
2022/05/19 00:14:09;;;;;;;7.35;3.67;;;;;;;7.24;77.12;100517.69;5001991;28;20050;-91
2022/05/19 00:16:35;;;;;;;5.10;3.40;;;;;;;7.08;76.27;100486.91;5001841;28;20021;-90
2022/05/19 00:19:00;;;;;;;5.82;2.97;;;;;;;7.26;76.37;100519.13;4985473;28;20030;-89
2022/05/19 00:21:25;;;;;;;7.68;3.00;;;;;;;7.12;76.68;100508.69;5001937;28;20027;-89
2022/05/19 00:23:51;;;;;;;11.80;3.15;;;;;;;7.14;77.15;100520.03;4985659;28;20030;-91
2022/05/19 00:26:17;;;;;;;3.85;2.50;;;;;;;7.22;75.56;100514.41;5001887;28;20053;-92
2022/05/19 00:28:42;;;;;;;9.25;3.00;;;;;;;7.07;75.88;100507.50;5001780;28;20512;-91
2022/05/19 00:31:08;;;;;;;4.47;2.70;;;;;;;7.09;76.68;100513.47;4985560;28;20026;-92
2022/05/19 00:33:33;;;;;;;4.80;2.85;;;;;;;7.14;76.18;100520.03;4985725;28;20503;-91
2022/05/19 00:36:05;;;;;;;8.95;2.40;;;;;;;7.17;75.58;100516.94;4985442;28;20026;-91
2022/05/19 00:38:30;;;;;;;6.68;2.58;;;;;;;7.17;75.32;100512.38;5002793;28;20137;-91
2022/05/19 00:40:58;;;;;;;6.10;2.28;;;;;;;7.07;75.09;100510.19;5001832;28;20431;-90
2022/05/19 00:43:35;;;;;;;6.05;2.78;;;;;;;7.04;75.71;100504.47;4985817;28;20036;-89
2022/05/19 00:46:13;;;;;;;6.05;2.65;;;;;;;7.00;76.57;100519.31;4989610;28;20060;-89
2022/05/19 00:48:56;;;;;;;6.18;2.60;;;;;;;7.10;75.38;100522.34;5021245;28;20021;-91
2022/05/19 00:51:43;;;;;;;9.52;3.08;;;;;;;7.05;75.43;100514.13;5021146;28;20033;-89
2022/05/19 00:54:10;;;;;;;4.28;2.47;;;;;;;7.08;76.09;100519.06;4992043;28;20108;-90
2022/05/19 00:56:43;;;;;;;8.55;2.42;;;;;;;6.96;75.79;100505.53;5004795;28;20022;-90
2022/05/19 00:59:13;;;;;;;9.10;2.58;;;;;;;7.10;75.71;100530.38;5005152;28;20096;-90
2022/05/19 01:01:40;;;;;;;6.53;2.60;;;;;;;7.00;75.35;100511.28;4988846;28;20024;-90
2022/05/19 01:04:14;;;;;;;4.20;2.40;;;;;;;6.84;75.94;100508.06;5002223;28;20041;-90
2022/05/19 01:06:39;;;;;;;4.97;2.42;;;;;;;6.90;75.66;100518.97;5018933;28;20032;-90
2022/05/19 01:09:07;;;;;;;7.07;2.42;;;;;;;6.86;76.03;100518.56;4985946;28;20025;-90
2022/05/19 01:11:33;;;;;;;7.75;2.58;;;;;;;6.83;76.38;100527.88;4985380;28;20033;-90
2022/05/19 01:13:58;;;;;;;4.18;2.00;;;;;;;6.83;76.89;100519.84;4985397;28;20025;-90
2022/05/19 01:16:24;;;;;;;6.90;2.80;;;;;;;6.82;76.15;100534.22;5001658;28;20545;-91
2022/05/19 01:18:50;;;;;;;3.72;2.33;;;;;;;6.68;76.43;100530.84;5001775;28;20081;-90
2022/05/19 01:21:17;;;;;;;5.60;2.15;;;;;;;6.66;76.25;100529.38;4985192;28;20022;-91
2022/05/19 01:24:01;;;;;;;5.40;2.25;;;;;;;6.77;75.83;100528.72;4985284;28;20067;-91
2022/05/19 01:26:41;;;;;;;5.40;2.75;;;;;;;6.73;76.18;100534.72;5017581;28;20082;-90
2022/05/19 01:29:07;;;;;;;3.47;2.35;;;;;;;6.62;76.42;100530.84;5017548;28;20502;-91
2022/05/19 01:31:36;;;;;;;7.00;2.30;;;;;;;6.61;76.58;100535.38;5001105;28;20116;-91
2022/05/19 01:34:03;;;;;;;4.82;2.15;;;;;;;6.67;75.82;100521.16;5017561;28;20033;-91
2022/05/19 01:36:29;;;;;;;3.72;2.25;;;;;;;6.73;75.60;100518.66;4984919;28;20029;-91
2022/05/19 01:39:05;;;;;;;5.75;2.40;;;;;;;6.72;76.52;100531.19;4985254;28;20507;-91
2022/05/19 01:41:38;;;;;;;5.28;2.25;;;;;;;6.67;76.78;100539.88;5018202;28;20064;-91
2022/05/19 01:44:33;;;;;;;6.72;3.38;;;;;;;6.48;77.22;100524.75;5001199;28;20060;-91
2022/05/19 01:47:08;;;;;;;4.40;2.75;;;;;;;6.34;77.57;100539.22;5020171;28;20071;-91
2022/05/19 01:49:46;;;;;;;3.67;2.47;;;;;;;6.26;78.71;100537.59;4985816;28;20029;-90
2022/05/19 01:52:30;;;;;;;3.55;2.65;;;;;;;6.27;78.13;100539.25;5001216;28;20029;-90
2022/05/19 01:55:10;;;;;;;6.07;2.70;;;;;;;6.20;77.68;100535.75;5001692;28;20025;-90
2022/05/19 01:58:00;;;;;;;6.95;2.47;;;;;;;6.23;77.31;100532.69;5017318;28;20040;-91
2022/05/19 02:00:27;;;;;;;4.05;2.42;;;;;;;6.27;76.57;100545.41;4998610;28;20037;-91
2022/05/19 02:03:43;;;;;;;6.35;2.50;;;;;;;6.20;76.59;100544.59;4984580;28;20037;-89
2022/05/19 02:06:33;;;;;;;3.17;2.50;;;;;;;6.22;76.71;100528.34;4941840;28;20065;-91
2022/05/19 02:09:04;;;;;;;4.45;2.22;;;;;;;6.18;77.51;100532.47;5001234;28;20060;-91
2022/05/19 02:11:42;;;;;;;9.00;2.50;;;;;;;6.27;77.48;100547.28;4984710;28;20388;-91
2022/05/19 02:14:10;;;;;;;6.10;2.08;;;;;;;6.28;77.32;100549.72;4984802;28;20038;-90
2022/05/19 02:16:36;;;;;;;6.70;2.33;;;;;;;6.30;76.37;100538.00;4983294;28;20048;-90
2022/05/19 02:19:01;;;;;;;8.98;2.38;;;;;;;6.25;76.36;100550.16;4984320;28;20037;-91
2022/05/19 02:21:27;;;;;;;3.95;2.00;;;;;;;6.34;76.24;100547.25;4984441;28;20084;-91
2022/05/19 02:23:55;;;;;;;4.85;2.33;;;;;;;6.48;75.55;100544.28;5000461;28;20060;-91
2022/05/19 02:26:20;;;;;;;4.47;2.33;;;;;;;6.55;75.10;100538.09;5000437;28;20029;-91
2022/05/19 02:28:50;;;;;;;6.15;2.40;;;;;;;6.38;76.25;100543.91;4983941;28;20037;-91
2022/05/19 02:31:16;;;;;;;4.63;2.75;;;;;;;6.44;77.04;100547.63;4984526;28;20025;-90
2022/05/19 02:33:41;;;;;;;5.20;2.33;;;;;;;6.34;77.14;100540.03;5000011;28;20036;-90
2022/05/19 02:36:07;;;;;;;4.70;2.55;;;;;;;6.26;76.85;100546.41;4983615;28;20030;-90
2022/05/19 02:38:33;;;;;;;9.75;2.25;;;;;;;6.25;75.99;100536.78;5000162;28;20167;-92
2022/05/19 02:40:58;;;;;;;6.47;2.42;;;;;;;6.30;76.29;100541.47;4983863;28;20021;-90
2022/05/19 02:43:24;;;;;;;4.20;2.15;;;;;;;6.29;76.26;100555.91;4983598;28;20407;-91
2022/05/19 02:45:49;;;;;;;10.15;3.92;;;;;;;6.33;75.89;100559.81;4983703;28;20068;-90
2022/05/19 02:48:15;;;;;;;5.63;2.42;;;;;;;6.31;75.84;100555.66;4983888;28;20116;-91
2022/05/19 02:50:42;;;;;;;5.85;2.50;;;;;;;6.40;76.23;100562.44;4984151;28;20091;-90
2022/05/19 02:53:08;;;;;;;6.72;2.15;;;;;;;6.34;76.02;100557.94;4984381;28;20494;-89
2022/05/19 02:55:33;;;;;;;3.85;2.20;;;;;;;6.26;75.72;100551.78;5000103;28;20025;-90
2022/05/19 02:57:59;;;;;;;4.50;2.40;;;;;;;6.32;75.49;100563.50;4983448;28;20037;-91
2022/05/19 03:00:25;;;;;;;5.88;3.15;;;;;;;6.39;75.38;100558.97;4983515;28;20091;-90
2022/05/19 03:02:52;;;;;;;4.85;2.17;;;;;;;6.33;74.93;100548.25;4999527;28;20407;-92
2022/05/19 03:05:20;;;;;;;7.50;2.33;;;;;;;6.48;75.37;100567.56;4983615;28;20120;-91
2022/05/19 03:07:45;;;;;;;5.45;1.77;;;;;;;6.44;75.81;100577.84;4999416;28;20025;-91
2022/05/19 03:10:11;;;;;;;11.98;2.10;;;;;;;6.32;75.20;100570.69;5000095;28;20030;-91
2022/05/19 03:12:36;;;;;;;9.00;2.60;;;;;;;6.19;75.96;100571.56;5015608;28;20030;-91
2022/05/19 03:15:02;;;;;;;8.13;2.92;;;;;;;6.22;76.21;100571.13;4983410;28;20065;-89
2022/05/19 03:17:28;;;;;;;7.30;2.22;;;;;;;6.19;75.42;100566.22;4999433;28;20029;-91
2022/05/19 03:19:54;;;;;;;8.88;2.40;;;;;;;6.19;75.77;100568.91;4983073;28;20025;-91
2022/05/19 03:22:20;;;;;;;6.35;2.40;;;;;;;6.35;75.46;100589.84;4999407;28;20025;-91
2022/05/19 03:24:45;;;;;;;3.95;2.00;;;;;;;6.26;74.71;100561.66;4982750;28;20025;-92
2022/05/19 03:27:11;;;;;;;6.00;2.25;;;;;;;6.33;74.80;100573.19;4998811;28;20091;-90
2022/05/19 03:29:36;;;;;;;8.25;2.08;;;;;;;6.42;74.95;100579.91;4999152;28;20045;-92
2022/05/19 03:32:02;;;;;;;10.40;2.42;;;;;;;6.42;74.52;100590.63;4982515;28;20025;-89
2022/05/19 03:34:27;;;;;;;6.88;2.03;;;;;;;6.41;74.43;100586.31;4982757;28;20035;-89
2022/05/19 03:36:53;;;;;;;5.57;2.20;;;;;;;6.34;75.21;100579.34;4982578;28;20108;-91
2022/05/19 03:39:27;;;;;;;5.80;2.70;;;;;;;6.38;74.82;100577.88;4998621;28;20393;-90
2022/05/19 03:41:53;;;;;;;7.97;2.60;;;;;;;6.45;76.03;100603.59;5000849;28;20033;-90
2022/05/19 03:44:18;;;;;;;3.97;2.47;;;;;;;6.34;75.12;100588.19;4998842;28;20581;-90
2022/05/19 03:46:44;;;;;;;5.88;2.47;;;;;;;6.50;74.80;100594.94;4982352;28;20026;-89
2022/05/19 03:49:11;;;;;;;9.35;2.58;;;;;;;6.52;75.25;100600.88;4998206;28;20033;-90
2022/05/19 03:51:37;;;;;;;9.80;2.30;;;;;;;6.41;75.47;100604.19;4983101;28;20151;-88
2022/05/19 03:54:02;;;;;;;6.63;2.38;;;;;;;6.56;75.16;100617.34;4998555;28;20100;-88
2022/05/19 03:56:28;;;;;;;6.28;2.30;;;;;;;6.56;75.50;100612.00;4998492;28;20036;-88
2022/05/19 03:58:53;;;;;;;8.68;2.35;;;;;;;6.59;74.88;100614.25;4998350;28;20408;-88
2022/05/19 04:01:19;;;;;;;4.93;2.10;;;;;;;6.66;74.57;100629.25;4998032;28;20021;-87
2022/05/19 04:03:45;;;;;;;6.85;2.10;;;;;;;6.61;74.78;100610.31;4998147;28;20030;-89
2022/05/19 04:06:10;;;;;;;10.35;2.75;;;;;;;6.72;74.34;100608.00;4998003;28;20029;-88
2022/05/19 04:08:36;;;;;;;7.22;2.40;;;;;;;6.96;73.31;100617.19;4997901;28;20537;-88
2022/05/19 04:11:02;;;;;;;8.90;3.47;;;;;;;7.04;73.31;100620.41;4997998;28;20033;-87
2022/05/19 04:13:27;;;;;;;7.93;1.67;;;;;;;7.09;70.91;100623.25;5014247;28;20452;-88
2022/05/19 04:15:53;;;;;;;4.70;1.58;;;;;;;7.21;69.85;100634.13;4998225;28;20030;-88
2022/05/19 04:18:18;;;;;;;5.30;2.05;;;;;;;7.07;71.69;100628.00;4982385;28;20026;-89
2022/05/19 04:20:47;;;;;;;8.55;2.10;;;;;;;7.25;71.94;100642.56;4981707;28;20034;-89
2022/05/19 04:23:12;;;;;;;15.13;2.33;;;;;;;7.21;72.04;100630.63;5015227;28;20043;-88
2022/05/19 04:25:38;;;;;;;3.85;2.63;;;;;;;7.33;72.07;100642.31;4981766;28;20033;-92
2022/05/19 04:28:04;;;;;;;8.20;2.17;;;;;;;7.33;72.03;100638.81;4983063;28;20036;-89
2022/05/19 04:30:29;;;;;;;8.38;1.90;;;;;;;7.48;70.59;100648.19;5014621;28;20025;-89
2022/05/19 04:32:55;;;;;;;13.75;3.22;;;;;;;7.45;71.54;100629.03;5016298;28;20017;-88
2022/05/19 04:35:21;;;;;;;14.85;4.50;;;;;;;7.51;71.81;100635.38;4995350;28;20029;-89
2022/05/19 04:37:46;;;;;;;13.38;3.40;;;;;;;7.61;71.95;100625.81;5000171;28;20147;-88
2022/05/19 04:40:12;;;;;;;8.10;2.60;;;;;;;7.78;71.44;100627.97;5014216;28;20040;-90
2022/05/19 04:42:38;;;;;;;10.60;3.03;;;;;;;7.95;70.64;100631.75;4985717;28;20024;-90
2022/05/19 04:45:04;;;;;;;17.15;2.80;;;;;;;8.06;71.57;100632.88;5001370;28;20119;-88
2022/05/19 04:47:30;;;;;;;13.70;2.72;;;;;;;8.10;71.53;100642.13;5001194;28;20399;-89
2022/05/19 04:49:55;;;;;;;9.25;2.40;;;;;;;8.06;70.71;100657.84;4985118;28;20025;-89
2022/05/19 04:52:21;;;;;;;11.35;2.70;;;;;;;8.16;70.19;100645.81;5001346;28;20529;-91
2022/05/19 04:54:47;;;;;;;17.35;3.22;;;;;;;8.10;70.31;100640.25;5018786;28;20025;-88
2022/05/19 04:57:13;;;;;;;10.80;3.63;;;;;;;8.00;70.18;100631.06;4986220;28;20017;-90
2022/05/19 04:59:39;;;;;;;16.48;3.25;;;;;;;8.14;70.10;100640.66;4985675;28;20021;-90
2022/05/19 05:02:05;;;;;;;8.57;4.60;;;;;;;8.21;70.39;100644.06;4985889;28;20018;-92
2022/05/19 05:04:30;;;;;;;15.52;4.95;;;;;;;8.33;69.58;100654.09;5015659;28;21145;-92
2022/05/19 05:06:56;;;;;;;8.60;3.78;;;;;;;8.31;69.84;100638.19;5000061;28;20115;-91
2022/05/19 05:09:22;;;;;;;14.07;4.13;;;;;;;8.47;69.07;100640.34;5022818;28;20495;-92
2022/05/19 05:11:47;;;;;;;16.20;3.97;;;;;;;8.48;69.19;100638.47;5006133;28;20021;-93
2022/05/19 05:14:14;;;;;;;14.25;6.22;;;;;;;8.51;69.94;100635.34;4992134;28;20021;-93
2022/05/19 05:16:39;;;;;;;20.13;7.90;;;;;;;8.59;68.83;100634.22;5002649;28;20399;-92
2022/05/19 05:19:05;;;;;;;9.98;4.95;;;;;;;8.60;68.95;100638.56;4985458;28;20025;-94
2022/05/19 05:21:30;;;;;;;8.27;4.43;;;;;;;8.46;69.51;100621.75;4998292;28;20014;-91
2022/05/19 05:23:56;;;;;;;12.43;4.95;;;;;;;8.72;68.64;100634.06;5027538;28;20514;-88
2022/05/19 05:26:21;;;;;;;9.70;4.72;;;;;;;8.82;68.45;100641.56;5033550;28;20040;-89
2022/05/19 05:28:47;;;;;;;14.00;6.05;;;;;;;9.02;68.52;100647.53;5033351;28;20026;-89
2022/05/19 05:31:13;;;;;;;18.95;5.75;;;;;;;9.12;68.48;100649.69;5016490;28;20052;-93
2022/05/19 05:33:38;;;;;;;17.73;6.63;;;;;;;9.24;67.98;100649.75;5032220;28;20037;-88
2022/05/19 05:36:04;;;;;;;18.58;7.40;;;;;;;9.30;67.38;100646.94;5015271;28;20094;-90
2022/05/19 05:38:29;;;;;;;23.60;11.85;;;;;;;9.54;67.67;100659.63;5000999;28;20037;-89
2022/05/19 05:40:55;;;;;;;19.75;11.90;;;;;;;9.59;66.80;100643.66;5002858;28;20507;-92
2022/05/19 05:43:21;;;;;;;29.38;11.70;;;;;;;9.75;66.53;100644.84;4983937;28;20029;-91
2022/05/19 05:45:47;;;;;;;21.52;11.30;;;;;;;9.81;67.06;100643.91;4983768;28;20087;-89
2022/05/19 05:48:12;;;;;;;21.30;11.65;;;;;;;9.97;66.51;100640.53;5000641;28;20021;-88
2022/05/19 05:50:38;;;;;;;25.88;11.82;;;;;;;9.96;65.69;100646.16;4983585;28;20029;-88
2022/05/19 05:53:05;;;;;;;22.60;10.52;;;;;;;10.04;65.43;100648.50;4984095;28;20087;-87
2022/05/19 05:55:30;;;;;;;18.92;11.18;;;;;;;10.19;65.47;100659.63;5002786;28;20017;-86
2022/05/19 05:57:56;;;;;;;19.25;10.63;;;;;;;10.23;65.19;100647.34;5015926;28;20033;-89
2022/05/19 06:00:22;;;;;;;13.60;8.98;;;;;;;10.21;66.10;100649.44;5012609;28;20045;-90
2022/05/19 06:02:50;;;;;;;20.52;9.32;;;;;;;10.30;65.00;100633.78;4994893;28;20021;-92
2022/05/19 06:05:15;;;;;;;17.95;8.15;;;;;;;10.42;64.54;100641.88;5011716;28;20026;-87
2022/05/19 06:07:41;;;;;;;24.65;11.25;;;;;;;10.58;65.00;100648.38;4983381;28;20503;-90
2022/05/19 06:10:08;;;;;;;16.98;8.52;;;;;;;10.68;64.31;100643.19;5005902;28;20034;-87
2022/05/19 06:12:33;;;;;;;17.73;9.30;;;;;;;10.81;64.10;100639.41;5015644;28;20021;-88
2022/05/19 06:14:59;;;;;;;15.50;9.10;;;;;;;10.96;64.13;100652.38;5021821;28;20028;-87
2022/05/19 06:17:25;;;;;;;23.70;11.32;;;;;;;10.98;63.75;100647.56;5015642;28;20028;-90
2022/05/19 06:19:50;;;;;;;33.88;17.70;;;;;;;11.02;64.46;100648.72;5003008;28;20040;-88
2022/05/19 06:22:17;;;;;;;26.10;15.70;;;;;;;11.25;63.27;100650.53;5025944;28;20021;-92
2022/05/19 06:24:43;;;;;;;23.48;13.70;;;;;;;11.42;62.19;100645.16;4990240;28;20067;-88
2022/05/19 06:27:09;;;;;;;36.15;13.93;;;;;;;11.55;61.02;100655.63;5015326;28;20013;-88
2022/05/19 06:29:34;;;;;;;27.02;12.80;;;;;;;11.65;61.03;100653.13;5022293;28;20450;-88
2022/05/19 06:32:00;;;;;;;26.23;11.98;;;;;;;11.85;60.97;100652.66;5015781;28;20026;-89
2022/05/19 06:34:25;;;;;;;19.35;9.65;;;;;;;12.01;60.13;100655.63;5001418;28;20112;-89
2022/05/19 06:36:51;;;;;;;12.50;5.50;;;;;;;12.06;59.17;100653.00;5013699;28;20044;-90
2022/05/19 06:39:17;;;;;;;12.63;5.80;;;;;;;12.25;59.42;100667.06;4999699;28;20087;-88
2022/05/19 06:42:01;;;;;;;15.40;5.80;;;;;;;12.28;60.32;100655.75;5010866;28;20021;-94
2022/05/19 06:44:32;;;;;;;8.13;4.75;;;;;;;12.39;58.34;100652.13;5018536;28;20198;-89
2022/05/19 06:46:57;;;;;;;18.45;10.30;;;;;;;12.58;58.03;100657.25;5023806;28;20032;-89
2022/05/19 06:49:23;;;;;;;12.05;5.00;;;;;;;12.82;57.83;100666.72;5005170;28;20112;-89
2022/05/19 06:51:51;;;;;;;21.40;4.75;;;;;;;12.83;57.96;100659.47;5015890;28;20134;-90
2022/05/19 06:54:17;;;;;;;19.58;7.40;;;;;;;12.89;57.48;100663.88;5045903;28;20018;-88
2022/05/19 06:56:43;;;;;;;10.00;3.55;;;;;;;13.08;55.35;100675.97;5045897;28;20051;-88
2022/05/19 06:59:08;;;;;;;9.27;3.45;;;;;;;13.09;55.88;100647.03;5032374;28;20514;-90
2022/05/19 07:01:34;;;;;;;13.02;3.50;;;;;;;13.27;56.57;100659.41;5017655;28;20025;-91
2022/05/19 07:04:00;;;;;;;8.93;3.35;;;;;;;13.26;56.49;100634.25;5001583;28;20577;-91
2022/05/19 07:06:31;;;;;;;10.45;3.50;;;;;;;13.30;54.95;100643.53;5005500;28;20025;-93
2022/05/19 07:09:44;;;;;;;9.95;2.85;;;;;;;13.51;55.17;100641.03;5007572;28;20040;-96
2022/05/19 07:16:29;;;;;;;12.32;3.72;;;;;;;13.97;55.15;100664.97;4879503;29;20043;-95
2022/05/19 07:21:42;;;;;;;10.40;4.95;;;;;;;13.81;54.84;100647.78;4869892;29;20035;-93
2022/05/19 07:24:18;;;;;;;8.20;2.40;;;;;;;14.01;52.74;100636.25;4956787;28;20504;-91
2022/05/19 07:26:44;;;;;;;16.02;3.20;;;;;;;14.26;55.09;100657.31;4998285;28;20034;-93
2022/05/19 07:29:17;;;;;;;13.85;2.90;;;;;;;14.35;54.51;100650.31;5000657;28;20582;-94
2022/05/19 07:31:46;;;;;;;7.93;2.60;;;;;;;14.40;52.91;100631.38;5001204;28;20038;-94
2022/05/19 07:34:16;;;;;;;31.23;23.75;;;;;;;14.48;51.86;100630.06;4985511;28;20034;-94
2022/05/19 07:36:41;;;;;;;16.42;8.18;;;;;;;14.73;51.98;100634.81;5001444;28;20224;-90
2022/05/19 07:39:07;;;;;;;12.88;2.70;;;;;;;15.03;51.65;100657.72;4974686;28;20030;-89
2022/05/19 07:41:33;;;;;;;6.25;1.40;;;;;;;15.09;48.78;100616.75;4959606;28;20088;-91
2022/05/19 07:43:58;;;;;;;4.95;1.50;;;;;;;15.36;48.52;100642.88;4973682;28;20054;-89
2022/05/19 07:46:25;;;;;;;4.70;1.60;;;;;;;15.32;49.25;100625.50;4992928;28;20053;-89
2022/05/19 07:48:54;;;;;;;8.85;2.42;;;;;;;15.42;49.25;100627.38;4979986;28;20026;-90
2022/05/19 07:51:21;;;;;;;9.52;2.47;;;;;;;15.51;47.60;100629.31;4987491;28;20025;-89
2022/05/19 07:53:46;;;;;;;4.75;1.40;;;;;;;15.60;46.49;100648.56;4997927;28;20030;-89
2022/05/19 07:56:12;;;;;;;4.45;1.60;;;;;;;15.66;46.42;100641.25;4968590;28;20034;-89
2022/05/19 07:58:37;;;;;;;6.57;4.40;;;;;;;15.52;46.36;100606.50;5012248;28;20041;-89
2022/05/19 08:01:03;;;;;;;3.38;1.27;;;;;;;15.75;46.70;100631.53;4993834;28;20038;-89
2022/05/19 08:03:29;;;;;;;4.22;1.30;;;;;;;15.87;45.77;100633.94;4992770;28;20037;-86
2022/05/19 08:05:55;;;;;;;5.90;1.42;;;;;;;15.75;44.47;100623.38;5033399;28;20483;-90
2022/05/19 08:08:20;;;;;;;5.70;1.25;;;;;;;15.90;45.18;100620.66;5032218;28;20037;-92
2022/05/19 08:10:46;;;;;;;1.40;1.08;;;;;;;15.91;45.04;100619.53;5016427;28;20053;-92
2022/05/19 08:15:55;;;;;;;3.53;1.50;;;;;;;15.95;43.22;100639.63;5036254;28;20109;-91
2022/05/19 08:18:22;;;;;;;3.17;1.10;;;;;;;15.97;41.01;100631.22;5003062;28;20189;-92
2022/05/19 08:20:52;;;;;;;3.50;1.20;;;;;;;16.05;41.61;100641.53;5019309;28;20033;-91
2022/05/19 08:23:20;;;;;;;7.07;1.27;;;;;;;16.03;42.42;100610.31;5020948;28;20153;-89
2022/05/19 08:25:46;;;;;;;5.53;1.20;;;;;;;16.05;42.07;100610.84;4984945;28;20030;-91
2022/05/19 08:28:14;;;;;;;9.45;1.80;;;;;;;16.16;42.96;100607.00;5020209;28;20049;-91
2022/05/19 08:30:42;;;;;;;4.82;1.30;;;;;;;16.18;43.02;100604.84;4986076;28;20484;-90
2022/05/19 08:33:07;;;;;;;6.68;1.30;;;;;;;16.30;41.75;100605.34;5016447;28;20045;-91
2022/05/19 08:35:33;;;;;;;10.35;1.88;;;;;;;16.48;42.68;100628.41;5013639;28;20026;-91
2022/05/19 08:38:04;;;;;;;5.10;2.20;;;;;;;16.54;41.53;100621.06;4982251;28;20064;-96
2022/05/19 08:40:31;;;;;;;;;;;;;;;16.76;40.11;100632.38;4968898;28;20027;-96
2022/05/19 08:43:00;;;;;;;6.15;1.88;;;;;;;16.77;41.11;100634.00;4998945;28;20399;-92
2022/05/19 08:45:35;;;;;;;6.15;1.88;;;;;;;16.81;40.91;100637.03;5001793;28;20479;-93
2022/05/19 08:48:08;;;;;;;7.85;2.28;;;;;;;16.81;41.32;100626.13;5006136;28;20048;-94
2022/05/19 08:51:10;;;;;;;9.60;2.35;;;;;;;17.00;40.78;100634.47;5007534;28;20030;-96
2022/05/19 08:53:42;;;;;;;11.02;4.32;;;;;;;17.04;40.38;100632.81;4984092;28;20042;-94
2022/05/19 08:56:10;;;;;;;;;;;;;;;17.06;38.91;100638.00;5006095;28;20033;-94
2022/05/19 08:59:36;;;;;;;3.10;1.10;;;;;;;17.18;39.87;100630.28;5016652;28;19916;-94
2022/05/19 09:02:13;;;;;;;4.38;1.42;;;;;;;16.97;34.30;100607.81;4981926;28;20030;-94
2022/05/19 09:05:09;;;;;;;3.70;1.40;;;;;;;17.13;35.42;100614.00;4967259;28;20090;-94
2022/05/19 09:08:02;;;;;;;4.97;1.33;;;;;;;17.27;39.60;100625.88;4968319;28;20054;-92
2022/05/19 09:10:32;;;;;;;5.55;1.90;;;;;;;17.21;38.62;100623.47;4982954;28;20093;-93
2022/05/19 09:13:09;;;;;;;2.90;1.30;;;;;;;17.10;35.14;100612.66;5009498;28;20040;-94
2022/05/19 09:15:35;;;;;;;13.52;7.88;;;;;;;17.25;36.85;100608.22;5034968;28;20029;-92
2022/05/19 09:18:00;;;;;;;13.23;9.23;;;;;;;17.42;37.08;100602.38;5038935;28;20044;-91
2022/05/19 09:20:31;;;;;;;13.57;7.63;;;;;;;17.56;37.70;100615.03;4990755;28;20037;-92
2022/05/19 09:23:04;;;;;;;36.88;27.73;;;;;;;17.65;39.69;100589.91;4984149;28;20033;-90
2022/05/19 09:25:32;;;;;;;2.47;1.50;;;;;;;17.64;39.30;100610.91;5026402;28;20041;-94
2022/05/19 09:27:59;;;;;;;8.85;1.83;;;;;;;17.65;40.06;100589.91;5022239;28;20182;-92
2022/05/19 09:30:46;;;;;;;4.88;1.98;;;;;;;17.71;40.52;100592.31;5005605;28;20037;-94
2022/05/19 09:33:21;;;;;;;5.78;1.92;;;;;;;17.66;39.97;100588.81;5022493;28;20495;-95
2022/05/19 09:35:53;;;;;;;4.90;1.50;;;;;;;17.89;38.98;100593.53;5005350;28;20026;-92
2022/05/19 09:38:33;;;;;;;7.97;2.00;;;;;;;17.86;39.50;100576.94;5005088;28;20033;-94
2022/05/19 09:41:03;;;;;;;3.65;1.52;;;;;;;18.00;39.90;100582.56;5003883;28;20505;-93
2022/05/19 09:43:36;;;;;;;5.88;1.40;;;;;;;18.08;38.46;100590.09;5013948;28;20029;-92
2022/05/19 09:46:13;;;;;;;3.42;1.17;;;;;;;18.00;37.33;100588.81;5016071;28;20059;-93
2022/05/19 09:48:44;;;;;;;4.10;1.25;;;;;;;18.01;37.29;100584.16;5027070;28;20108;-90
2022/05/19 09:51:14;;;;;;;4.93;1.55;;;;;;;18.17;36.67;100602.78;5006371;28;20506;-90
2022/05/19 09:53:55;;;;;;;4.50;1.20;;;;;;;17.87;36.68;100579.41;5004888;28;20030;-95
2022/05/19 09:56:25;;;;;;;2.45;1.23;;;;;;;17.83;37.50;100564.72;5005422;28;20017;-89
2022/05/19 09:59:06;;;;;;;4.20;1.30;;;;;;;17.89;38.27;100593.53;5006980;28;20495;-94
2022/05/19 10:01:39;;;;;;;5.20;1.60;;;;;;;17.84;37.59;100573.69;4996102;28;20025;-92
2022/05/19 10:04:13;;;;;;;4.60;1.60;;;;;;;17.90;37.13;100572.56;5007144;28;20554;-95
2022/05/19 10:06:49;;;;;;;10.20;1.50;;;;;;;18.14;36.66;100578.03;4993124;28;20044;-92
2022/05/19 10:09:18;;;;;;;12.40;1.40;;;;;;;18.06;35.54;100574.03;5039212;28;20027;-93
2022/05/19 10:11:55;;;;;;;4.40;1.20;;;;;;;17.99;34.58;100565.38;5022147;28;20029;-91
2022/05/19 10:14:26;;;;;;;3.60;1.95;;;;;;;17.95;36.09;100564.31;5023412;28;20033;-93
2022/05/19 10:17:22;;;;;;;5.45;2.08;;;;;;;18.20;36.14;100573.31;5031188;28;20052;-92
2022/05/19 10:20:10;;;;;;;2.65;1.15;;;;;;;18.30;35.40;100565.03;5021562;28;20026;-90
2022/05/19 10:23:19;;;;;;;7.25;1.40;;;;;;;18.20;37.25;100563.25;5018954;28;20036;-93
2022/05/19 10:26:15;;;;;;;8.20;4.85;;;;;;;18.43;37.17;100568.97;5024839;28;20064;-92
2022/05/19 10:31:57;;;;;;;4.70;1.75;;;;;;;18.60;38.15;100557.59;5041344;28;20037;-91
2022/05/19 10:34:28;;;;;;;3.38;1.38;;;;;;;18.76;37.12;100556.28;5035856;28;20036;-90
2022/05/19 10:37:07;;;;;;;6.57;1.30;;;;;;;18.71;36.64;100543.50;5038623;28;20487;-92
2022/05/19 10:39:45;;;;;;;2.10;1.00;;;;;;;18.57;36.85;100534.41;4990288;28;20018;-94
2022/05/19 10:42:25;;;;;;;4.22;1.70;;;;;;;18.65;38.21;100524.78;5012495;28;20085;-93
2022/05/19 10:45:16;;;;;;;5.20;1.70;;;;;;;18.81;38.24;100537.13;5010469;28;20049;-95
2022/05/19 10:48:17;;;;;;;4.93;1.43;;;;;;;18.86;38.81;100542.50;5027259;28;20053;-95
2022/05/19 10:51:00;;;;;;;4.72;1.48;;;;;;;18.79;37.27;100536.59;5025055;28;20296;-94
2022/05/19 10:53:48;;;;;;;5.05;1.20;;;;;;;18.51;35.45;100498.22;5024378;28;20045;-91
2022/05/19 10:56:53;;;;;;;6.15;1.38;;;;;;;18.64;36.93;100540.34;5024600;28;20028;-92
2022/05/19 10:59:27;;;;;;;3.80;1.30;;;;;;;18.69;35.51;100525.81;5027733;28;20107;-95
2022/05/19 11:02:41;;;;;;;3.95;1.30;;;;;;;18.78;36.09;100535.81;5018799;28;20032;-95
2022/05/19 11:05:23;;;;;;;4.70;1.33;;;;;;;18.64;37.57;100501.34;5018361;28;20032;-94
2022/05/19 11:08:05;;;;;;;2.72;1.23;;;;;;;18.53;38.47;100504.19;4988206;28;20029;-92
2022/05/19 11:11:02;;;;;;;1.70;1.25;;;;;;;18.51;35.55;100492.78;5002530;28;20057;-91
2022/05/19 11:13:39;;;;;;;6.55;1.80;;;;;;;18.78;35.45;100527.63;5024620;28;20033;-93
2022/05/19 11:16:12;;;;;;;4.35;1.20;;;;;;;18.77;36.20;100520.50;5021498;28;20030;-93
2022/05/19 11:19:00;;;;;;;2.55;1.20;;;;;;;18.67;37.33;100504.25;5020382;28;20348;-93
2022/05/19 11:21:55;;;;;;;2.58;1.25;;;;;;;18.94;36.45;100532.84;4990259;28;20102;-92
2022/05/19 11:24:26;;;;;;;9.10;5.30;;;;;;;18.80;36.87;100491.03;5006147;28;20025;-93
2022/05/19 11:27:17;;;;;;;3.58;1.60;;;;;;;18.88;36.24;100498.53;5005191;28;20075;-95
2022/05/19 11:29:47;;;;;;;1.90;1.20;;;;;;;18.98;35.41;100514.75;5021836;28;20029;-92
2022/05/19 11:32:19;;;;;;;10.82;1.50;;;;;;;19.02;35.80;100499.41;5034545;28;20124;-93
2022/05/19 11:34:50;;;;;;;;;;;;;;;19.15;35.08;100511.50;5001520;28;20029;-93
2022/05/19 11:37:39;;;;;;;2.33;1.35;;;;;;;19.27;35.80;100500.09;5037984;28;19916;-95
2022/05/19 11:40:20;;;;;;;3.35;1.50;;;;;;;19.11;35.95;100494.91;5040821;28;20039;-92
2022/05/19 11:43:14;;;;;;;4.83;1.77;;;;;;;19.34;36.88;100493.16;5020867;28;20021;-95
2022/05/19 11:46:04;;;;;;;5.00;1.48;;;;;;;19.26;34.84;100480.19;5035866;28;20503;-93
2022/05/19 11:58:04;;;;;;;2.13;1.30;;;;;;;19.31;35.46;100463.69;5021820;28;20040;-94
2022/05/19 12:00:36;;;;;;;2.80;1.30;;;;;;;19.29;35.15;100476.03;5027726;28;20220;-93
2022/05/19 12:03:35;;;;;;;1.80;1.00;;;;;;;19.15;36.02;100459.63;5020010;28;20029;-95
2022/05/19 12:06:06;;;;;;;2.70;1.10;;;;;;;19.33;35.56;100472.41;5006647;28;20021;-94
2022/05/19 12:09:19;;;;;;;7.45;3.13;;;;;;;19.49;35.65;100469.41;5006690;28;20155;-95